MapRunner: Quentin Harding - 37 runs; PB: 4:08 Pace; 710 Points
Event Name Event Date Distance (km) Pace (mins/km) OverallPosition AgeCatPosition Points
HarewellEaster21 PXASV PZ ScoreV120 2021-04-02 21.18 5:52 SM:2 M55-59:1 550 (incl - 50)
KnaresboroughFarNorth PZ0426012021 PXAS ScoreV45 2021-01-26 7.36 4:19 SM:1 M55-59:1 600
HookstoneChase PZ0412012021 PXAS ScoreV45 2021-01-12 6.78 4:19 SM:1 M55-59:1 600
SmelthousesNewYear PXASV PZ ScoreV120 2021-01-01 16.52 6:30 SM:1 M55-59:1 520
Colton Long PXAC 2020-12-14 7.34 4:36 -- -- --
RiponNorth PZ0418112020 PXAS ScoreV45 2020-11-18 8.85 4:23 SM:2 M55-59:1 600
HarrogateNW PZ0416122020 PXAS ScoreV45 2020-11-02 7.12 4:36 SM:1 M55-59:1 600
HarrogateBilton PZ0416122020 PXAS ScoreV45 2020-10-21 8.4 4:22 SM:1 M55-59:1 600
Crossgates PXAS ScoreV45 PZ2331122020 2020-10-20 9.81 4:33 SM:1 M55-59:1 420
HarrogateSE PZ0416122020 PXAS ScoreV45 2020-10-07 7.55 4:13 SM:1 M55-59:1 600
HarrogateSE PZ0416122020 PXAS ScoreV45 2020-10-07 7.93 5:35 SM:15 M55-59:6 0
Wrose Brow Long Course PXAC 2020-10-05 6.68 4:47 -- -- --
Baildon Long PZ2006092020 PXAC 2020-08-29 5.59 5:32 -- -- --
Cow and Calf Long PZ2109082020 PXAC 2020-07-28 7.08 6:29 -- -- --
HarrogateEast PZ0422072020 PXAS ScoreV45 2020-07-22 5.9 4:16 SM:1 M55-59:1 600
RiponWestVer2 PZ0415072020 PXAS ScoreV45 2020-07-15 6.29 4:15 SM:1 M55-59:1 540
KnaresboroughNE PZ0408072020 PXAS ScoreV45 2020-07-08 8.09 4:31 SM:6 M55-59:3 580
HarrogateColdBath PXAS ScoreV45 2020-07-01 10.36 4:21 SM:2 M55-59:2 530 (incl - 10)
HarrogateKnoxHill PZ0424062020 PXAS ScoreV45 2020-06-24 7.6 4:29 SM:1 M55-59:1 600
Holt Park Long PZ2130062020 PXAC 2020-06-19 5.45 4:22 -- -- --
Ikley Moor Control Pick PZ2123062020 PXAC 2020-06-16 2.4 7:45 -- -- --
Ilkley Long PZ2123062020 PXAC 2020-06-13 4.74 4:47 -- -- --
HarrogateSW PZ0410062020 PXAS ScoreV45 2020-06-10 7.37 4:08 SM:1 M55-59:1 600
Headingley start anywhere PXAS ScoreV60 2020-06-05 13 4:39 SM:7 M55-59:3 510 (incl - 10)
KnaresboroughSE PZ0403062020 PXAS ScoreV45 2020-06-03 7.02 4:23 SM:1 M55-59:1 400
Prologue PZ0427052020 PXAS ScoreV45 2020-05-27 7.12 4:14 SM:1 M55-59:1 400
Menston HR start anywhere PXAS ScoreV60 2020-05-25 9.47 4:13 SM:1 M55-59:1 660
HarrogateValleyGardens PXAS ScoreV45 2020-05-25 2.53 4:20 SM:1 M55-59:1 400
HarrogateValleyGardens PXAS ScoreV45 2020-05-25 2.64 4:53 SM:2 M55-59:2 400
Harrogate1 PXAS 2020-03-22 10.28 4:35 -- -- --
homerun 0.92 5:30 -- -- --
2mWedHookstone PXASV Score40 2.9 12:39 -- -- --